createdAt,value
2023-11-23T00:01:28.640Z,3.57
2023-11-23T00:06:31.299Z,3.62
2023-11-23T00:11:35.529Z,3.63
2023-11-23T00:16:38.233Z,3.64
2023-11-23T00:21:40.932Z,3.72
2023-11-23T00:26:44.904Z,3.81
2023-11-23T00:31:47.470Z,3.91
2023-11-23T00:36:50.385Z,4.06
2023-11-23T00:41:54.362Z,4.29
2023-11-23T00:46:57.029Z,4.50
2023-11-23T00:51:59.761Z,4.74
2023-11-23T00:57:03.748Z,4.85
2023-11-23T01:02:06.734Z,4.94
2023-11-23T01:07:09.426Z,5.01
2023-11-23T01:12:13.410Z,5.12
2023-11-23T01:17:16.033Z,5.19
2023-11-23T01:22:19.143Z,5.28
2023-11-23T01:27:23.089Z,5.43
2023-11-23T01:32:25.860Z,5.36
2023-11-23T01:37:29.011Z,5.45
2023-11-23T01:42:33.009Z,5.51
2023-11-23T01:47:39.457Z,5.62
2023-11-23T01:52:43.289Z,5.59
2023-11-23T01:57:50.082Z,5.67
2023-11-23T02:02:53.102Z,5.74
2023-11-23T02:07:55.822Z,5.81
2023-11-23T02:12:59.776Z,5.90
2023-11-23T02:18:03.342Z,5.87
2023-11-23T02:23:09.579Z,5.97
2023-11-23T02:28:13.516Z,6.13
2023-11-23T02:33:16.420Z,6.16
2023-11-23T02:38:19.392Z,6.31
2023-11-23T02:43:23.402Z,6.36
2023-11-23T02:48:26.042Z,6.41
2023-11-23T02:53:33.987Z,6.47
2023-11-23T02:58:38.021Z,6.47
2023-11-23T03:03:40.642Z,6.57
2023-11-23T03:08:45.316Z,6.63
2023-11-23T03:13:50.295Z,6.68
2023-11-23T03:18:53.044Z,6.73
2023-11-23T03:23:57.165Z,6.83
2023-11-23T03:29:01.109Z,6.91
2023-11-23T03:34:03.960Z,6.95
2023-11-23T03:39:08.086Z,7.00
2023-11-23T03:44:12.117Z,7.12
2023-11-23T03:49:14.720Z,7.25
2023-11-23T03:54:17.401Z,7.32
2023-11-23T03:59:21.603Z,7.31
2023-11-23T04:04:24.466Z,7.45
2023-11-23T04:09:27.200Z,7.42
2023-11-23T04:14:32.083Z,7.54
2023-11-23T04:19:34.823Z,7.57
2023-11-23T04:24:40.418Z,7.65
2023-11-23T04:29:44.616Z,7.75
2023-11-23T04:34:47.707Z,7.90
2023-11-23T04:39:50.349Z,7.85
2023-11-23T04:44:54.278Z,7.98
2023-11-23T05:21:56.365Z,8.48
2023-11-23T05:26:58.960Z,8.47
2023-11-23T05:32:01.563Z,8.55
2023-11-23T05:37:05.869Z,8.68
2023-11-23T05:42:09.142Z,8.65
2023-11-23T05:47:11.829Z,8.70
2023-11-23T05:52:23.087Z,8.81
2023-11-23T05:57:26.089Z,8.77
2023-11-23T06:02:28.715Z,8.81
2023-11-23T06:07:32.706Z,8.92
2023-11-23T06:12:40.795Z,8.95
2023-11-23T06:17:43.407Z,9.04
2023-11-23T06:22:49.308Z,9.00
2023-11-23T06:27:55.559Z,9.06
2023-11-23T06:33:01.599Z,9.03
2023-11-23T06:38:05.785Z,9.14
2023-11-23T06:43:08.425Z,9.16
2023-11-23T06:48:11.090Z,9.11
2023-11-23T06:53:15.450Z,9.22
2023-11-23T06:58:18.026Z,9.28
2023-11-23T07:03:22.578Z,9.23
2023-11-23T07:08:26.507Z,9.28
2023-11-23T07:13:29.387Z,9.27
2023-11-23T07:18:32.607Z,9.36
2023-11-23T07:23:37.520Z,9.42
2023-11-23T07:28:40.291Z,9.46
2023-11-23T07:33:44.935Z,9.51
2023-11-23T07:38:49.645Z,9.48
2023-11-23T07:43:52.319Z,9.52
2023-11-23T07:48:54.974Z,9.67
2023-11-23T07:53:58.952Z,9.68
2023-11-23T07:59:01.566Z,9.65
2023-11-23T08:04:05.186Z,9.65
2023-11-23T08:09:11.399Z,9.74
2023-11-23T08:14:14.239Z,9.74
2023-11-23T08:19:17.195Z,9.87
2023-11-23T08:24:27.276Z,9.90
2023-11-23T08:29:31.175Z,9.88
2023-11-23T08:34:33.827Z,10.00
2023-11-23T08:39:38.658Z,9.95
2023-11-23T08:44:41.921Z,10.02
2023-11-23T08:49:44.519Z,10.06
2023-11-23T08:54:48.459Z,10.10
2023-11-23T08:59:51.017Z,10.10
2023-11-23T09:04:53.770Z,10.19
2023-11-23T09:09:58.371Z,10.17
2023-11-23T09:15:01.391Z,10.16
2023-11-23T09:20:06.514Z,10.25
2023-11-23T09:25:10.695Z,10.30
2023-11-23T09:30:14.183Z,10.40
2023-11-23T09:35:16.923Z,10.38
2023-11-23T09:40:21.554Z,10.52
2023-11-23T09:45:26.670Z,10.51
2023-11-23T09:50:33.781Z,10.60
2023-11-23T09:55:40.296Z,10.61
2023-11-23T10:00:42.981Z,10.60
2023-11-23T10:05:46.261Z,10.74
2023-11-23T10:10:50.219Z,10.70
2023-11-23T10:15:52.865Z,10.81
2023-11-23T10:20:57.721Z,10.86
2023-11-23T10:26:03.206Z,10.99
2023-11-23T10:31:06.719Z,10.98
2023-11-23T10:36:09.889Z,11.09
2023-11-23T10:41:15.816Z,11.18
2023-11-23T10:46:20.634Z,11.14
2023-11-23T10:51:26.395Z,11.10
2023-11-23T10:56:33.045Z,11.02
2023-11-23T11:01:37.006Z,11.07
2023-11-23T11:06:40.949Z,11.05
2023-11-23T11:11:55.306Z,11.09
2023-11-23T11:17:02.485Z,11.00
2023-11-23T11:22:13.257Z,11.07
2023-11-23T11:27:20.948Z,11.08
2023-11-23T11:32:23.607Z,11.17
2023-11-23T11:37:26.820Z,11.12
2023-11-23T11:42:32.024Z,11.15
2023-11-23T11:47:35.185Z,11.24
2023-11-23T11:52:38.442Z,11.22
2023-11-23T11:57:43.029Z,11.31
2023-11-23T12:02:45.814Z,11.26
2023-11-23T12:07:54.139Z,11.28
2023-11-23T12:12:58.140Z,11.38
2023-11-23T12:18:03.695Z,11.32
2023-11-23T12:23:06.644Z,11.50
2023-11-23T12:28:14.960Z,11.33
2023-11-23T12:33:17.836Z,11.36
2023-11-23T12:38:20.554Z,11.33
2023-11-23T12:43:24.596Z,11.43
2023-11-23T12:48:27.421Z,11.36
2023-11-23T12:53:30.958Z,11.44
2023-11-23T12:58:35.603Z,11.39
2023-11-23T13:03:38.976Z,11.37
2023-11-23T13:08:41.675Z,11.45
2023-11-23T13:13:46.911Z,11.43
2023-11-23T13:19:05.489Z,11.50
2023-11-23T13:24:13.167Z,11.39
2023-11-23T13:29:17.326Z,11.44
2023-11-23T13:34:20.653Z,11.45
2023-11-23T13:39:23.636Z,11.38
2023-11-23T13:44:27.657Z,11.36
2023-11-23T13:49:30.234Z,11.34
2023-11-23T13:54:32.887Z,11.32
2023-11-23T13:59:37.130Z,11.37
2023-11-23T14:04:41.447Z,11.25
2023-11-23T14:09:44.045Z,11.20
2023-11-23T14:14:49.297Z,11.20
2023-11-23T14:19:52.566Z,11.22
2023-11-23T14:24:55.409Z,11.18
2023-11-23T14:29:59.435Z,11.21
2023-11-23T14:35:02.055Z,11.22
2023-11-23T14:40:14.338Z,11.21
2023-11-23T14:45:18.761Z,11.29
2023-11-23T14:50:22.262Z,11.27
2023-11-23T14:55:25.136Z,11.38
2023-11-23T15:00:30.882Z,11.38
2023-11-23T15:05:33.968Z,11.45
2023-11-23T15:10:36.614Z,11.46
2023-11-23T15:15:43.604Z,11.51
2023-11-23T15:20:47.333Z,11.67
2023-11-23T15:25:51.894Z,11.69
2023-11-23T15:30:55.997Z,11.60
2023-11-23T15:35:59.299Z,11.64
2023-11-23T15:41:02.012Z,11.61
2023-11-23T15:46:06.850Z,11.72
2023-11-23T15:51:10.360Z,11.94
2023-11-23T15:56:17.388Z,11.98
2023-11-23T16:01:25.983Z,10.66
2023-11-23T16:06:28.839Z,10.17
2023-11-23T16:11:31.566Z,10.11
2023-11-23T16:16:35.981Z,9.82
2023-11-23T16:21:38.658Z,9.67
2023-11-23T16:26:41.360Z,9.60
2023-11-23T16:31:46.189Z,9.67
2023-11-23T16:36:49.598Z,9.67
2023-11-23T16:41:52.290Z,9.82
2023-11-23T16:46:57.277Z,9.59
2023-11-23T16:51:59.996Z,9.69
2023-11-23T16:57:04.706Z,9.84
2023-11-23T17:02:09.866Z,9.78
2023-11-23T17:07:13.626Z,9.75
2023-11-23T17:12:16.261Z,9.54
2023-11-23T17:17:20.311Z,9.66
2023-11-23T17:22:22.923Z,9.58
2023-11-23T17:27:25.576Z,9.44
2023-11-23T17:32:29.610Z,9.45
2023-11-23T17:37:32.412Z,9.39
2023-11-23T17:42:35.215Z,9.41
2023-11-23T17:47:39.475Z,9.48
2023-11-23T17:52:42.648Z,9.25
2023-11-23T17:57:45.359Z,9.25
2023-11-23T18:02:49.437Z,9.26
2023-11-23T18:07:52.067Z,9.09
2023-11-23T18:12:55.645Z,9.29
2023-11-23T18:18:00.692Z,9.13
2023-11-23T18:23:03.472Z,9.29
2023-11-23T18:28:06.086Z,9.20
2023-11-23T18:33:10.143Z,9.27
2023-11-23T18:38:14.404Z,9.20
2023-11-23T18:43:17.111Z,9.24
2023-11-23T18:48:22.270Z,9.26
2023-11-23T18:53:24.923Z,9.28
2023-11-23T18:58:27.567Z,9.18
2023-11-23T19:03:32.020Z,9.05
2023-11-23T19:08:34.793Z,9.06
2023-11-23T19:13:37.676Z,9.10
2023-11-23T19:18:48.983Z,8.93
2023-11-23T19:23:52.236Z,8.87
2023-11-23T19:28:59.403Z,8.76
2023-11-23T19:34:04.518Z,8.68
2023-11-23T19:39:09.967Z,8.67
2023-11-23T19:44:14.244Z,8.82
2023-11-23T19:49:19.979Z,8.81
2023-11-23T19:54:22.639Z,8.63
2023-11-23T19:59:25.282Z,8.65
2023-11-23T20:04:29.295Z,8.62
2023-11-23T20:09:32.386Z,8.55
2023-11-23T20:14:35.956Z,8.45
2023-11-23T20:19:41.688Z,8.35
2023-11-23T20:24:44.422Z,8.28
2023-11-23T20:29:47.074Z,8.18
2023-11-23T20:34:51.074Z,8.15
2023-11-23T20:39:53.720Z,8.06
2023-11-23T20:44:56.355Z,8.10
2023-11-23T20:50:01.346Z,8.22
2023-11-23T20:55:07.553Z,8.00
2023-11-23T21:00:13.073Z,8.08
2023-11-23T21:05:18.479Z,8.06
2023-11-23T21:10:21.558Z,8.26
2023-11-23T21:15:24.204Z,7.52
2023-11-23T21:20:29.202Z,7.07
2023-11-23T21:25:31.781Z,6.78
2023-11-23T21:30:34.385Z,6.86
2023-11-23T21:35:39.275Z,6.95
2023-11-23T21:40:41.930Z,7.04
2023-11-23T21:45:45.532Z,7.28
2023-11-23T21:50:49.601Z,7.46
2023-11-23T21:55:52.372Z,7.22
2023-11-23T22:00:54.990Z,7.23
2023-11-23T22:05:58.968Z,7.16
2023-11-23T22:11:01.554Z,7.14
2023-11-23T22:16:04.362Z,7.28
2023-11-23T22:21:09.424Z,7.24
2023-11-23T22:26:15.066Z,7.02
2023-11-23T22:31:19.762Z,6.75
2023-11-23T22:36:24.748Z,6.74
2023-11-23T22:41:28.793Z,6.72
2023-11-23T22:46:32.383Z,6.74
2023-11-23T22:51:36.537Z,6.58
2023-11-23T22:56:39.260Z,6.55
2023-11-23T23:01:41.934Z,6.48
2023-11-23T23:06:45.921Z,6.42
2023-11-23T23:11:49.127Z,6.40
2023-11-23T23:16:51.787Z,6.43
2023-11-23T23:21:55.764Z,6.35
2023-11-23T23:26:58.376Z,6.46
2023-11-23T23:32:01.012Z,6.42
2023-11-23T23:37:05.205Z,6.39
2023-11-23T23:42:07.823Z,6.48
2023-11-23T23:47:10.393Z,6.26
2023-11-23T23:52:14.419Z,6.19
2023-11-23T23:57:19.459Z,6.30
